Fiat, Indiana
Current Conditions -  °F | °C
As of 2:35 PM on Wednesday 17 Dec 2014 (Local Time) from KVES Reporting Station
Overcast Overcast  
Wind Chill: 16°   Ceiling: 800
Heat Index: 27°   Visibility: 10mi
Dew Point: 27°   Wind: 13mph
Humidity: 100%   Direction: 280°W
Pressure: 30.17"   Gusts: 18mph
Location:  40.5419°N, 84.8968°W
Report Text: KVES 171935Z AUTO 28011G16KT 10SM OVC008 M03/M03 A3017 RMK AO2
Loading
Personal Weather Stations






























Interactive Weather Map New forecast layout! Learn more

10-Day Weather Forecast

Advertisements
Track Severe Weather on mobile